createdAt,value
2019-05-05T00:00:37.189Z,100215.33
2019-05-05T00:03:26.670Z,100221.47
2019-05-05T00:05:57.394Z,100218.94
2019-05-05T00:08:26.713Z,100225.06
2019-05-05T00:11:16.798Z,100215.89
2019-05-05T00:13:58.417Z,100220.73
2019-05-05T00:16:38.274Z,100219.70
2019-05-05T00:19:07.915Z,100217.91
2019-05-05T00:21:37.474Z,100215.66
2019-05-05T00:24:07.101Z,100217.05
2019-05-05T00:26:36.663Z,100218.19
2019-05-05T00:29:06.251Z,100221.27
2019-05-05T00:31:35.914Z,100215.73
2019-05-05T00:34:05.360Z,100224.77
2019-05-05T00:36:35.357Z,100228.99
2019-05-05T00:39:05.167Z,100231.73
2019-05-05T00:41:34.818Z,100239.59
2019-05-05T00:44:04.855Z,100237.14
2019-05-05T00:47:05.397Z,100238.92
2019-05-05T00:49:45.691Z,100246.45
2019-05-05T00:52:07.457Z,100250.70
2019-05-05T00:54:37.158Z,100249.96
2019-05-05T00:57:06.798Z,100253.13
2019-05-05T00:59:36.427Z,100258.78
2019-05-05T01:02:31.077Z,100261.11
2019-05-05T01:05:18.507Z,100258.25
2019-05-05T01:07:48.215Z,100264.25
2019-05-05T01:10:17.895Z,100270.75
2019-05-05T01:12:47.351Z,100278.41
2019-05-05T01:15:16.980Z,100285.85
2019-05-05T01:17:46.574Z,100280.47
2019-05-05T01:20:16.195Z,100290.49
2019-05-05T01:22:45.766Z,100289.32
2019-05-05T01:25:15.467Z,100299.56
2019-05-05T01:27:45.423Z,100298.83
2019-05-05T01:30:16.832Z,100297.26
2019-05-05T01:32:49.355Z,100305.45
2019-05-05T01:35:18.691Z,100319.14
2019-05-05T01:38:04.872Z,100312.80
2019-05-05T01:40:46.727Z,100328.63
2019-05-05T01:43:16.059Z,100323.70
2019-05-05T01:45:45.606Z,100327.56
2019-05-05T01:48:15.385Z,100328.19
2019-05-05T01:50:45.319Z,100330.73
2019-05-05T01:53:15.282Z,100328.55
2019-05-05T01:55:45.272Z,100336.71
2019-05-05T01:58:15.318Z,100339.20
2019-05-05T02:00:45.505Z,100350.20
2019-05-05T02:03:15.177Z,100352.41
2019-05-05T02:05:45.294Z,100354.86
2019-05-05T02:08:15.396Z,100360.45
2019-05-05T02:10:45.449Z,100358.61
2019-05-05T02:13:16.116Z,100355.27
2019-05-05T02:15:45.849Z,100363.20
2019-05-05T02:18:15.468Z,100364.78
2019-05-05T02:20:51.857Z,100363.47
2019-05-05T02:23:21.480Z,100365.12
2019-05-05T02:25:51.019Z,100370.52
2019-05-05T02:28:20.661Z,100368.28
2019-05-05T02:30:57.396Z,100371.30
2019-05-05T02:33:27.070Z,100371.66
2019-05-05T02:35:56.637Z,100380.00
2019-05-05T02:38:26.468Z,100375.81
2019-05-05T02:40:56.060Z,100382.69
2019-05-05T02:43:25.713Z,100378.02
2019-05-05T02:46:21.459Z,100380.66
2019-05-05T02:48:51.594Z,100382.35
2019-05-05T02:51:21.401Z,100385.37
2019-05-05T02:53:51.249Z,100373.05
2019-05-05T02:56:24.879Z,100395.44
2019-05-05T02:58:56.499Z,100400.73
2019-05-05T03:01:34.350Z,100404.70
2019-05-05T03:04:04.053Z,100409.52
2019-05-05T03:06:34.278Z,100414.44
2019-05-05T03:09:04.656Z,100423.74
2019-05-05T03:11:34.428Z,100430.84
2019-05-05T03:14:04.405Z,100421.05
2019-05-05T03:16:37.255Z,100431.20
2019-05-05T03:19:07.304Z,100432.27
2019-05-05T03:21:36.879Z,100430.51
2019-05-05T03:24:06.810Z,100432.38
2019-05-05T03:26:36.580Z,100431.45
2019-05-05T03:29:08.646Z,100440.09
2019-05-05T03:31:38.361Z,100442.30
2019-05-05T03:34:08.054Z,100443.98
2019-05-05T03:36:37.705Z,100446.74
2019-05-05T03:39:09.824Z,100447.95
2019-05-05T03:41:46.002Z,100446.91
2019-05-05T03:44:21.244Z,100443.70
2019-05-05T03:46:50.877Z,100443.70
2019-05-05T03:49:20.636Z,100455.23
2019-05-05T03:51:50.405Z,100455.66
2019-05-05T03:54:20.186Z,100463.47
2019-05-05T03:56:54.452Z,100461.95
2019-05-05T03:59:24.388Z,100466.34
2019-05-05T04:02:03.806Z,100466.34
2019-05-05T04:04:37.160Z,100473.34
2019-05-05T04:07:06.665Z,100476.58
2019-05-05T04:09:36.432Z,100465.70
2019-05-05T04:12:06.005Z,100465.70
2019-05-05T04:14:35.619Z,100472.89
2019-05-05T04:17:17.785Z,100466.54
2019-05-05T04:19:49.939Z,100469.14
2019-05-05T04:22:19.598Z,100471.14
2019-05-05T04:24:49.230Z,100464.79
2019-05-05T04:27:18.777Z,100475.71
2019-05-05T04:29:48.512Z,100469.14
2019-05-05T04:32:18.137Z,100475.62
2019-05-05T04:34:47.935Z,100477.73
2019-05-05T04:37:17.375Z,100471.80
2019-05-05T04:39:46.720Z,100470.95
2019-05-05T04:42:16.110Z,100479.06
2019-05-05T04:44:45.456Z,100483.30
2019-05-05T04:47:21.002Z,100491.98
2019-05-05T04:50:07.999Z,100487.50
2019-05-05T04:52:37.386Z,100498.09
2019-05-05T04:55:06.763Z,100501.41
2019-05-05T04:57:36.171Z,100507.41
2019-05-05T05:00:05.857Z,100507.06
2019-05-05T05:02:49.535Z,100512.43
2019-05-05T05:05:33.724Z,100520.30
2019-05-05T05:08:03.826Z,100531.66
2019-05-05T05:10:34.588Z,100531.72
2019-05-05T05:13:04.700Z,100538.08
2019-05-05T05:15:34.190Z,100537.41
2019-05-05T05:18:11.211Z,100535.28
2019-05-05T05:20:40.555Z,100537.80
2019-05-05T05:23:09.940Z,100539.39
2019-05-05T05:25:39.277Z,100536.55
2019-05-05T05:28:08.709Z,100541.09
2019-05-05T05:30:38.081Z,100535.47
2019-05-05T05:33:07.480Z,100528.16
2019-05-05T05:35:36.828Z,100531.39
2019-05-05T05:38:06.205Z,100537.17
2019-05-05T05:40:57.505Z,100534.22
2019-05-05T05:43:38.828Z,100545.19
2019-05-05T05:46:19.481Z,100548.20
2019-05-05T05:49:06.617Z,100552.63
2019-05-05T05:51:36.045Z,100556.59
2019-05-05T05:54:05.433Z,100556.25
2019-05-05T05:56:34.794Z,100566.80
2019-05-05T05:59:04.200Z,100567.19
2019-05-05T06:01:34.572Z,100570.31
2019-05-05T06:04:04.224Z,100568.55
2019-05-05T06:06:34.687Z,100565.13
2019-05-05T06:09:04.518Z,100562.69
2019-05-05T06:11:34.420Z,100565.53
2019-05-05T06:14:04.183Z,100569.31
2019-05-05T06:16:34.177Z,100572.83
2019-05-05T06:19:03.844Z,100572.45
2019-05-05T06:21:33.719Z,100577.22
2019-05-05T06:24:04.439Z,100575.53
2019-05-05T06:26:34.398Z,100577.02
2019-05-05T06:29:04.393Z,100563.54
2019-05-05T06:31:34.253Z,100566.39
2019-05-05T06:34:03.889Z,100569.63
2019-05-05T06:36:34.031Z,100567.36
2019-05-05T06:39:04.880Z,100573.41
2019-05-05T06:41:53.916Z,100576.75
2019-05-05T06:44:48.059Z,100572.81
2019-05-05T06:47:20.381Z,100573.47
2019-05-05T06:49:49.767Z,100567.48
2019-05-05T06:52:19.109Z,100562.54
2019-05-05T06:54:48.508Z,100569.48
2019-05-05T06:57:17.854Z,100577.35
2019-05-05T06:59:47.239Z,100575.53
2019-05-05T07:02:16.599Z,100563.58
2019-05-05T07:04:46.002Z,100562.48
2019-05-05T07:07:15.338Z,100564.92
2019-05-05T07:09:44.718Z,100559.47
2019-05-05T07:12:14.122Z,100561.59
2019-05-05T07:14:44.605Z,100566.80
2019-05-05T07:17:14.292Z,100554.98
2019-05-05T07:19:44.974Z,100556.00
2019-05-05T07:22:17.602Z,100564.45
2019-05-05T07:24:45.651Z,100566.97
2019-05-05T07:27:15.242Z,100569.00
2019-05-05T07:29:44.888Z,100571.67
2019-05-05T07:32:14.452Z,100561.08
2019-05-05T07:35:04.073Z,100568.61
2019-05-05T07:37:34.401Z,100571.08
2019-05-05T07:40:04.521Z,100574.16
2019-05-05T07:42:34.156Z,100566.50
2019-05-05T07:45:08.387Z,100574.33
2019-05-05T07:47:35.447Z,100577.34
2019-05-05T07:50:05.219Z,100586.25
2019-05-05T07:52:34.765Z,100578.39
2019-05-05T07:55:04.394Z,100570.17
2019-05-05T07:57:34.245Z,100572.68
2019-05-05T08:00:05.436Z,100576.04
2019-05-05T08:02:35.117Z,100580.72
2019-05-05T08:05:05.030Z,100577.47
2019-05-05T08:07:34.737Z,100579.84
2019-05-05T08:10:04.723Z,100577.39
2019-05-05T08:12:34.332Z,100583.70
2019-05-05T08:15:05.039Z,100583.43
2019-05-05T08:17:47.652Z,100587.20
2019-05-05T08:20:23.666Z,100581.93
2019-05-05T08:22:53.729Z,100586.36
2019-05-05T08:25:37.515Z,100596.67
2019-05-05T08:28:14.691Z,100598.30
2019-05-05T08:31:08.175Z,100596.96
2019-05-05T08:33:37.813Z,100603.02
2019-05-05T08:36:07.639Z,100609.68
2019-05-05T08:38:37.227Z,100609.83
2019-05-05T08:41:06.856Z,100615.92
2019-05-05T08:43:36.444Z,100610.30
2019-05-05T08:46:06.092Z,100609.64
2019-05-05T08:48:35.673Z,100612.63
2019-05-05T08:51:05.279Z,100610.33
2019-05-05T08:53:43.385Z,100611.93
2019-05-05T08:56:06.070Z,100601.55
2019-05-05T08:58:35.736Z,100602.69
2019-05-05T09:01:05.388Z,100609.75
2019-05-05T09:03:35.048Z,100605.03
2019-05-05T09:06:04.879Z,100610.83
2019-05-05T09:08:34.846Z,100608.98
2019-05-05T09:11:04.928Z,100614.91
2019-05-05T09:13:34.552Z,100607.66
2019-05-05T09:16:04.296Z,100608.72
2019-05-05T09:18:35.613Z,100605.75
2019-05-05T09:21:05.255Z,100603.86
2019-05-05T09:23:36.584Z,100612.38
2019-05-05T09:26:13.880Z,100614.05
2019-05-05T09:29:04.294Z,100611.47
2019-05-05T09:31:35.517Z,100610.89
2019-05-05T09:34:05.054Z,100609.61
2019-05-05T09:36:34.877Z,100614.70
2019-05-05T09:39:05.048Z,100615.80
2019-05-05T09:41:34.668Z,100616.12
2019-05-05T09:44:04.412Z,100601.12
2019-05-05T09:46:34.145Z,100606.11
2019-05-05T09:49:04.668Z,100600.20
2019-05-05T09:51:34.834Z,100603.94
2019-05-05T09:54:14.143Z,100608.38
2019-05-05T09:56:36.193Z,100608.32
2019-05-05T09:59:05.884Z,100609.81
2019-05-05T10:01:35.553Z,100608.38
2019-05-05T10:04:09.005Z,100604.13
2019-05-05T10:06:39.144Z,100609.56
2019-05-05T10:09:09.171Z,100607.50
2019-05-05T10:11:38.692Z,100616.64
2019-05-05T10:14:08.341Z,100619.48
2019-05-05T10:16:38.186Z,100626.09
2019-05-05T10:19:07.972Z,100624.88
2019-05-05T10:21:37.547Z,100627.56
2019-05-05T10:24:27.104Z,100621.58
2019-05-05T10:26:45.451Z,100617.84
2019-05-05T10:29:15.193Z,100628.27
2019-05-05T10:31:44.778Z,100624.01
2019-05-05T10:34:16.306Z,100614.11
2019-05-05T10:36:45.956Z,100607.22
2019-05-05T10:39:24.436Z,100617.39
2019-05-05T10:41:56.147Z,100605.09
2019-05-05T10:44:25.483Z,100608.59
2019-05-05T10:46:55.113Z,100611.19
2019-05-05T10:49:24.796Z,100617.19
2019-05-05T10:51:54.513Z,100620.02
2019-05-05T10:54:24.216Z,100614.64
2019-05-05T10:56:53.852Z,100615.00
2019-05-05T10:59:23.865Z,100620.22
2019-05-05T11:01:53.885Z,100626.30
2019-05-05T11:04:24.376Z,100624.27
2019-05-05T11:06:54.609Z,100622.72
2019-05-05T11:09:24.552Z,100620.19
2019-05-05T11:11:54.172Z,100626.86
2019-05-05T11:14:23.788Z,100629.95
2019-05-05T11:16:54.630Z,100636.53
2019-05-05T11:19:24.467Z,100635.38
2019-05-05T11:21:54.102Z,100633.33
2019-05-05T11:24:24.071Z,100622.17
2019-05-05T11:26:54.096Z,100625.20
2019-05-05T11:29:24.191Z,100628.94
2019-05-05T11:31:54.395Z,100629.70
2019-05-05T11:34:27.365Z,100629.07
2019-05-05T11:37:08.546Z,100629.95
2019-05-05T11:39:38.173Z,100628.41
2019-05-05T11:42:07.719Z,100627.20
2019-05-05T11:44:37.414Z,100625.89
2019-05-05T11:47:07.144Z,100622.17
2019-05-05T11:49:36.814Z,100624.09
2019-05-05T11:52:06.375Z,100619.32
2019-05-05T11:54:36.026Z,100616.73
2019-05-05T11:57:05.765Z,100612.06
2019-05-05T11:59:35.346Z,100608.27
2019-05-05T12:02:05.665Z,100608.73
2019-05-05T12:04:35.273Z,100608.12
2019-05-05T12:07:04.950Z,100606.14
2019-05-05T12:09:54.914Z,100597.78
2019-05-05T12:12:24.721Z,100605.69
2019-05-05T12:14:54.872Z,100604.77
2019-05-05T12:17:36.782Z,100597.03
2019-05-05T12:20:08.547Z,100596.00
2019-05-05T12:22:38.105Z,100597.89
2019-05-05T12:25:28.530Z,100595.03
2019-05-05T12:28:01.668Z,100597.11
2019-05-05T12:30:31.264Z,100585.58
2019-05-05T12:33:00.939Z,100597.77
2019-05-05T12:35:30.580Z,100591.67
2019-05-05T12:38:00.233Z,100594.61
2019-05-05T12:40:29.879Z,100585.03
2019-05-05T12:42:59.522Z,100588.47
2019-05-05T12:45:31.386Z,100596.48
2019-05-05T12:48:18.349Z,100592.09
2019-05-05T12:50:48.272Z,100586.37
2019-05-05T12:53:17.958Z,100584.72
2019-05-05T12:55:47.611Z,100584.53
2019-05-05T12:58:17.238Z,100583.41
2019-05-05T13:00:54.315Z,100580.41
2019-05-05T13:03:24.053Z,100583.27
2019-05-05T13:05:53.662Z,100576.20
2019-05-05T13:08:23.516Z,100566.91
2019-05-05T13:10:53.515Z,100573.44
2019-05-05T13:13:23.683Z,100580.00
2019-05-05T13:15:53.705Z,100567.40
2019-05-05T13:18:24.548Z,100573.94
2019-05-05T13:21:01.213Z,100571.95
2019-05-05T13:23:53.871Z,100559.83
2019-05-05T13:26:33.256Z,100565.23
2019-05-05T13:29:02.941Z,100560.27
2019-05-05T13:31:33.780Z,100552.55
2019-05-05T13:34:04.406Z,100560.50
2019-05-05T13:36:34.078Z,100562.14
2019-05-05T13:39:05.448Z,100566.37
2019-05-05T13:41:36.675Z,100560.62
2019-05-05T13:44:10.000Z,100548.25
2019-05-05T13:46:39.541Z,100551.52
2019-05-05T13:49:26.659Z,100540.05
2019-05-05T13:51:57.935Z,100538.72
2019-05-05T13:54:27.579Z,100542.06
2019-05-05T13:56:57.321Z,100542.27
2019-05-05T13:59:26.909Z,100542.69
2019-05-05T14:01:56.640Z,100534.11
2019-05-05T14:04:26.272Z,100531.04
2019-05-05T14:06:55.932Z,100535.66
2019-05-05T14:09:25.596Z,100534.06
2019-05-05T14:11:55.348Z,100529.55
2019-05-05T14:14:25.015Z,100530.00
2019-05-05T14:16:54.675Z,100532.86
2019-05-05T14:19:24.941Z,100533.39
2019-05-05T14:21:54.686Z,100534.91
2019-05-05T14:24:30.692Z,100537.28
2019-05-05T14:27:00.265Z,100545.64
2019-05-05T14:29:41.428Z,100545.81
2019-05-05T14:32:13.618Z,100552.39
2019-05-05T14:34:46.946Z,100554.89
2019-05-05T14:37:27.399Z,100546.06
2019-05-05T14:39:57.054Z,100550.80
2019-05-05T14:42:26.687Z,100547.42
2019-05-05T14:44:56.359Z,100545.37
2019-05-05T14:47:26.007Z,100542.89
2019-05-05T14:49:55.579Z,100544.67
2019-05-05T14:52:25.363Z,100545.63
2019-05-05T14:54:54.860Z,100549.60
2019-05-05T14:57:28.440Z,100546.74
2019-05-05T14:59:58.291Z,100542.77
2019-05-05T15:02:27.955Z,100546.53
2019-05-05T15:05:00.100Z,100540.32
2019-05-05T15:07:39.075Z,100548.22
2019-05-05T15:10:36.637Z,100551.08
2019-05-05T15:13:08.609Z,100549.84
2019-05-05T15:15:38.516Z,100541.73
2019-05-05T15:18:08.414Z,100539.11
2019-05-05T15:20:37.940Z,100537.09
2019-05-05T15:23:07.628Z,100540.23
2019-05-05T15:25:37.389Z,100537.70
2019-05-05T15:28:07.090Z,100534.50
2019-05-05T15:30:36.894Z,100535.67
2019-05-05T15:33:06.578Z,100534.33
2019-05-05T15:35:36.232Z,100531.67
2019-05-05T15:38:05.856Z,100538.73
2019-05-05T15:40:35.450Z,100541.42
2019-05-05T15:43:05.098Z,100533.34
2019-05-05T15:45:34.729Z,100537.68
2019-05-05T15:48:04.667Z,100536.74
2019-05-05T15:50:34.391Z,100531.00
2019-05-05T15:53:04.067Z,100533.52
2019-05-05T15:55:34.012Z,100536.41
2019-05-05T15:58:03.773Z,100538.73
2019-05-05T16:00:34.496Z,100538.73
2019-05-05T16:03:07.058Z,100533.02
2019-05-05T16:05:35.652Z,100533.91
2019-05-05T16:08:05.332Z,100538.56
2019-05-05T16:10:34.870Z,100540.39
2019-05-05T16:13:04.594Z,100528.16
2019-05-05T16:15:53.558Z,100528.52
2019-05-05T16:18:48.671Z,100531.95
2019-05-05T16:21:26.351Z,100532.32
2019-05-05T16:24:01.105Z,100530.20
2019-05-05T16:26:31.877Z,100534.09
2019-05-05T16:29:01.472Z,100528.56
2019-05-05T16:31:34.113Z,100529.99
2019-05-05T16:34:03.887Z,100533.34
2019-05-05T16:36:33.691Z,100533.97
2019-05-05T16:39:03.465Z,100537.20
2019-05-05T16:41:34.061Z,100536.02
2019-05-05T16:44:03.819Z,100537.20
2019-05-05T16:46:34.146Z,100534.88
2019-05-05T16:49:03.910Z,100536.38
2019-05-05T16:51:36.996Z,100537.22
2019-05-05T16:54:10.936Z,100536.04
2019-05-05T16:56:40.853Z,100541.28
2019-05-05T16:59:10.531Z,100536.59
2019-05-05T17:01:40.094Z,100535.22
2019-05-05T17:04:11.604Z,100536.08
2019-05-05T17:06:41.614Z,100541.77
2019-05-05T17:09:11.428Z,100539.25
2019-05-05T17:11:43.970Z,100544.47
2019-05-05T17:14:23.483Z,100545.79
2019-05-05T17:17:11.229Z,100551.19
2019-05-05T17:19:50.330Z,100561.81
2019-05-05T17:22:47.792Z,100568.75
2019-05-05T17:25:17.473Z,100572.52
2019-05-05T17:27:50.934Z,100581.81
2019-05-05T17:30:18.711Z,100592.59
2019-05-05T17:32:48.304Z,100591.27
2019-05-05T17:35:18.848Z,100596.77
2019-05-05T17:37:48.240Z,100598.05
2019-05-05T17:40:24.977Z,100598.22
2019-05-05T17:43:24.366Z,100609.47
2019-05-05T17:45:59.829Z,100609.31
2019-05-05T17:48:48.215Z,100605.88
2019-05-05T17:51:39.731Z,100606.89
2019-05-05T17:54:37.057Z,100613.91
2019-05-05T17:57:06.708Z,100607.22
2019-05-05T17:59:36.375Z,100596.69
2019-05-05T18:02:06.029Z,100604.44
2019-05-05T18:04:35.593Z,100601.47
2019-05-05T18:07:24.038Z,100598.80
2019-05-05T18:10:19.246Z,100598.88
2019-05-05T18:13:05.879Z,100607.09
2019-05-05T18:15:54.373Z,100602.75
2019-05-05T18:18:24.059Z,100608.08
2019-05-05T18:20:54.271Z,100601.91
2019-05-05T18:23:24.020Z,100604.05
2019-05-05T18:25:54.837Z,100605.05
2019-05-05T18:28:24.794Z,100602.97
2019-05-05T18:30:54.506Z,100613.41
2019-05-05T18:33:24.731Z,100617.20
2019-05-05T18:35:54.468Z,100614.13
2019-05-05T18:38:24.259Z,100618.55
2019-05-05T18:40:55.709Z,100620.17
2019-05-05T18:43:37.786Z,100624.00
2019-05-05T18:46:07.584Z,100630.81
2019-05-05T18:48:37.253Z,100623.09
2019-05-05T18:51:06.664Z,100628.64
2019-05-05T18:53:36.101Z,100633.14
2019-05-05T18:56:05.766Z,100631.94
2019-05-05T18:58:37.126Z,100638.86
2019-05-05T19:01:19.803Z,100645.19
2019-05-05T19:04:07.023Z,100650.29
2019-05-05T19:07:10.527Z,100650.64
2019-05-05T19:09:51.060Z,100655.42
2019-05-05T19:12:11.508Z,100656.97
2019-05-05T19:14:41.159Z,100659.53
2019-05-05T19:17:10.729Z,100659.89
2019-05-05T19:19:41.818Z,100663.19
2019-05-05T19:22:13.863Z,100667.02
2019-05-05T19:24:44.059Z,100661.05
2019-05-05T19:27:14.257Z,100661.95
2019-05-05T19:29:46.056Z,100664.72
2019-05-05T19:32:15.207Z,100674.14
2019-05-05T19:34:44.855Z,100691.44
2019-05-05T19:37:14.727Z,100685.03
2019-05-05T19:39:44.548Z,100688.82
2019-05-05T19:42:14.470Z,100696.86
2019-05-05T19:44:44.240Z,100692.96
2019-05-05T19:47:19.406Z,100692.42
2019-05-05T19:49:58.128Z,100692.59
2019-05-05T19:52:27.732Z,100697.89
2019-05-05T19:54:57.319Z,100699.48
2019-05-05T19:57:26.911Z,100695.42
2019-05-05T19:59:56.636Z,100694.92
2019-05-05T20:02:26.314Z,100691.64
2019-05-05T20:04:55.947Z,100687.23
2019-05-05T20:07:25.534Z,100682.95
2019-05-05T20:09:55.197Z,100684.42
2019-05-05T20:12:24.823Z,100679.30
2019-05-05T20:14:54.864Z,100687.77
2019-05-05T20:17:30.021Z,100687.72
2019-05-05T20:19:59.611Z,100681.97
2019-05-05T20:22:29.303Z,100682.02
2019-05-05T20:24:58.705Z,100678.52
2019-05-05T20:27:28.356Z,100687.92
2019-05-05T20:29:58.024Z,100680.98
2019-05-05T20:32:34.238Z,100675.16
2019-05-05T20:35:33.837Z,100679.21
2019-05-05T20:38:09.766Z,100686.02
2019-05-05T20:40:40.788Z,100682.28
2019-05-05T20:43:10.368Z,100684.68
2019-05-05T20:45:39.931Z,100684.94
2019-05-05T20:48:09.723Z,100686.66
2019-05-05T20:50:39.284Z,100684.55
2019-05-05T20:53:09.138Z,100680.55
2019-05-05T20:55:38.755Z,100679.33
2019-05-05T20:58:08.576Z,100678.30
2019-05-05T21:00:38.170Z,100676.28
2019-05-05T21:03:07.825Z,100682.84
2019-05-05T21:05:37.489Z,100680.45
2019-05-05T21:08:07.105Z,100678.91
2019-05-05T21:10:36.680Z,100679.34
2019-05-05T21:13:06.315Z,100685.95
2019-05-05T21:15:36.007Z,100686.22
2019-05-05T21:18:05.657Z,100684.27
2019-05-05T21:20:35.447Z,100692.73
2019-05-05T21:23:10.893Z,100688.11
2019-05-05T21:25:44.506Z,100684.06
2019-05-05T21:28:14.749Z,100683.66
2019-05-05T21:30:44.424Z,100682.95
2019-05-05T21:33:13.969Z,100691.02
2019-05-05T21:35:44.176Z,100682.31
2019-05-05T21:38:14.296Z,100687.63
2019-05-05T21:40:44.148Z,100688.63
2019-05-05T21:43:15.356Z,100687.44
2019-05-05T21:45:45.311Z,100686.11
2019-05-05T21:48:14.897Z,100688.99
2019-05-05T21:50:50.534Z,100687.34
2019-05-05T21:53:34.278Z,100686.95
2019-05-05T21:56:27.673Z,100683.80
2019-05-05T21:58:58.153Z,100686.06
2019-05-05T22:01:28.859Z,100690.95
2019-05-05T22:03:58.515Z,100691.03
2019-05-05T22:06:28.156Z,100692.91
2019-05-05T22:08:58.274Z,100697.67
2019-05-05T22:11:27.880Z,100694.60
2019-05-05T22:13:57.525Z,100691.53
2019-05-05T22:16:27.124Z,100694.02
2019-05-05T22:18:56.803Z,100691.83
2019-05-05T22:21:35.991Z,100688.53
2019-05-05T22:24:19.365Z,100690.48
2019-05-05T22:26:48.977Z,100684.41
2019-05-05T22:29:18.658Z,100686.42
2019-05-05T22:31:48.847Z,100683.41
2019-05-05T22:34:18.503Z,100687.04
2019-05-05T22:36:48.150Z,100684.47
2019-05-05T22:39:17.842Z,100678.64
2019-05-05T22:41:47.573Z,100685.80
2019-05-05T22:44:17.130Z,100688.87
2019-05-05T22:46:46.769Z,100692.42
2019-05-05T22:49:16.514Z,100679.45
2019-05-05T22:51:46.207Z,100685.63
2019-05-05T22:54:15.820Z,100689.27
2019-05-05T22:56:45.550Z,100692.32
2019-05-05T22:59:15.307Z,100689.66
2019-05-05T23:01:44.999Z,100693.66
2019-05-05T23:04:34.770Z,100688.55
2019-05-05T23:07:11.257Z,100693.03
2019-05-05T23:09:40.846Z,100697.78
2019-05-05T23:12:10.507Z,100698.17
2019-05-05T23:14:40.165Z,100699.05
2019-05-05T23:17:27.411Z,100693.36
2019-05-05T23:20:16.301Z,100696.63
2019-05-05T23:22:58.971Z,100698.50
2019-05-05T23:25:33.565Z,100693.44
2019-05-05T23:28:04.096Z,100689.68
2019-05-05T23:30:41.631Z,100695.14
2019-05-05T23:33:05.134Z,100695.13
2019-05-05T23:35:34.781Z,100692.96
2019-05-05T23:38:04.446Z,100699.51
2019-05-05T23:40:34.086Z,100698.78
2019-05-05T23:43:04.514Z,100696.82
2019-05-05T23:45:34.334Z,100696.71
2019-05-05T23:48:03.902Z,100701.55
2019-05-05T23:50:33.908Z,100697.19
2019-05-05T23:53:03.528Z,100701.44
2019-05-05T23:55:34.422Z,100700.22
2019-05-05T23:58:04.215Z,100691.27
